Time;durP1;ratioP1;P1;durP2;ratioP2;P2;SDS_P1;SDS_P2;PMS_P1;PMS_P2;Temp;Humidity;BMP_temperature;BMP_pressure;BME280_temperature;BME280_humidity;BME280_pressure;Samples;Min_cycle;Max_cycle;Signal;HPM_P1;HPM_P2
2022/08/15 10:07:32;;;;;;;2.22;1.38;;;27.00;66.10;;;;;;5088043;28;20106;-65
2022/08/15 10:09:59;;;;;;;2.85;1.00;;;26.90;66.60;;;;;;5086656;28;20489;-62
2022/08/15 10:12:26;;;;;;;3.20;2.45;;;26.90;66.70;;;;;;5052528;28;96418;-65
2022/08/15 10:18:54;;;;;;;;;;;;;;;;;;;;;
2022/08/15 10:22:59;;;;;;;2.67;2.17;;;26.90;67.10;;;;;;4442255;27;15131272;-76
2022/08/15 10:25:37;;;;;;;4.32;2.75;;;26.90;68.00;;;;;;5007406;28;20057;-76
2022/08/15 10:32:30;;;;;;;2.92;2.53;;;26.90;67.90;;;;;;4800377;28;20038;-78
2022/08/15 10:35:51;;;;;;;5.50;2.97;;;26.90;68.20;;;;;;4775973;23;20808;-82
2022/08/15 10:39:10;;;;;;;5.63;2.22;;;27.00;68.70;;;;;;4668699;29;20047;-79
2022/08/15 10:41:57;;;;;;;4.10;2.78;;;27.00;69.50;;;;;;4817893;29;20920;-77
2022/08/15 10:45:52;;;;;;;7.15;6.43;;;27.00;70.90;;;;;;4829210;29;20050;-76
2022/08/15 11:39:51;;;;;;;10.80;5.57;;;30.10;66.30;;;;;;4867971;29;20045;-82
2022/08/15 11:43:34;;;;;;;4.50;3.30;;;29.80;66.60;;;;;;4853321;29;20041;-83
2022/08/15 12:04:35;;;;;;;5.00;3.75;;;29.10;68.30;;;;;;4864435;29;20049;-80
2022/08/15 12:08:32;;;;;;;5.45;3.13;;;29.10;68.40;;;;;;4916526;28;20042;-81
2022/08/15 13:39:00;;;;;;;;;;;;;;;;;;;;;
2022/08/15 13:43:05;;;;;;;;;;;;;;;;;;;;;
2022/08/15 13:56:28;;;;;;;;;;;;;;;;;;;;;
2022/08/15 14:18:06;;;;;;;;;;;;;;;;;;;;;
2022/08/15 14:39:52;;;;;;;;;;;;;;;;;;;;;
2022/08/15 14:59:33;;;;;;;2.75;1.83;;;29.40;63.80;;;;;;4846157;29;20057;-82
2022/08/15 15:11:57;;;;;;;;;;;;;;;;;;;;;
2022/08/15 15:57:03;;;;;;;;;;;;;;;;;;;;;
2022/08/15 19:24:11;;;;;;;;;;;;;;;;;;;;;
2022/08/15 19:40:18;;;;;;;;;;;;;;;;;;;;;
2022/08/15 19:43:33;;;;;;;4.20;2.78;;;25.10;76.30;;;;;;4849777;29;20038;-81
2022/08/15 20:29:54;;;;;;;3.00;2.40;;;24.60;78.20;;;;;;5223726;23;20057;-81
2022/08/15 20:56:47;;;;;;;;;;;;;;;;;;;;;
2022/08/15 21:15:43;;;;;;;7.53;2.53;;;24.30;80.30;;;;;;4818914;29;20054;-81
2022/08/15 21:26:29;;;;;;;3.83;2.55;;;24.20;80.80;;;;;;5324710;23;20052;-83
2022/08/15 21:29:22;;;;;;;3.15;1.85;;;24.10;80.90;;;;;;4843693;29;20041;-82
2022/08/15 21:31:57;;;;;;;2.60;1.85;;;24.10;81.10;;;;;;4855283;29;20053;-82
2022/08/15 21:34:34;;;;;;;2.40;1.73;;;24.10;80.60;;;;;;4838297;29;20575;-82
2022/08/15 21:37:06;;;;;;;2.67;2.00;;;24.10;80.90;;;;;;4855271;29;20751;-83
2022/08/15 21:39:32;;;;;;;3.45;1.75;;;24.10;80.70;;;;;;4840905;29;20060;-83
2022/08/15 21:42:09;;;;;;;2.78;2.47;;;24.00;80.60;;;;;;4838364;29;20397;-83
2022/08/15 21:45:00;;;;;;;3.40;2.53;;;24.00;80.50;;;;;;4851699;29;20030;-83
2022/08/15 21:47:33;;;;;;;2.45;1.95;;;24.00;80.60;;;;;;4842506;29;20044;-84
2022/08/15 21:50:00;;;;;;;;;;;24.00;80.50;;;;;;4842917;29;20041;-83
2022/08/15 21:52:26;;;;;;;4.18;3.13;;;23.90;80.40;;;;;;4855422;29;19919;-83
2022/08/15 21:54:58;;;;;;;5.40;2.60;;;23.90;80.50;;;;;;4839493;29;20420;-84
2022/08/15 21:57:30;;;;;;;3.72;2.47;;;23.90;80.50;;;;;;4846359;29;20038;-81
2022/08/15 21:59:59;;;;;;;;;;;23.90;80.50;;;;;;4844443;29;20192;-83
2022/08/15 22:02:43;;;;;;;2.78;1.90;;;23.80;80.30;;;;;;4844672;29;19916;-81
2022/08/15 22:05:18;;;;;;;2.47;1.80;;;23.80;80.40;;;;;;4828920;29;20046;-82
2022/08/15 22:07:47;;;;;;;2.47;1.77;;;23.80;80.50;;;;;;4845258;29;20028;-81
2022/08/15 22:10:18;;;;;;;3.00;2.15;;;23.80;80.50;;;;;;4861379;29;20030;-83
2022/08/15 22:12:50;;;;;;;2.72;1.63;;;23.70;80.60;;;;;;4840957;29;20539;-82
2022/08/15 22:15:17;;;;;;;2.87;1.57;;;23.70;80.50;;;;;;4844218;29;20030;-82
2022/08/15 22:17:45;;;;;;;3.60;1.42;;;23.70;80.40;;;;;;4843511;29;20290;-82
2022/08/15 22:20:13;;;;;;;2.15;1.60;;;23.70;80.50;;;;;;4845951;29;20068;-82
2022/08/15 22:22:42;;;;;;;2.42;1.40;;;23.60;80.40;;;;;;4841785;29;20026;-82
2022/08/15 22:25:10;;;;;;;3.90;1.67;;;23.70;80.40;;;;;;4858630;29;20033;-82
2022/08/15 22:27:37;;;;;;;2.85;1.48;;;23.60;80.40;;;;;;4846869;29;20056;-83
2022/08/15 22:30:06;;;;;;;3.13;1.70;;;23.60;80.40;;;;;;4830092;29;20061;-84
2022/08/15 22:32:33;;;;;;;2.63;2.00;;;23.60;80.50;;;;;;4842905;29;20041;-81
2022/08/15 22:35:00;;;;;;;2.20;1.65;;;23.50;80.60;;;;;;4844572;29;21227;-83
2022/08/15 22:37:26;;;;;;;2.15;1.55;;;23.50;80.50;;;;;;4831093;29;20033;-84
2022/08/15 22:39:55;;;;;;;1.75;1.13;;;23.50;80.40;;;;;;4860474;29;20038;-83
2022/08/15 22:42:29;;;;;;;2.88;1.45;;;23.50;80.40;;;;;;4845974;29;20138;-82
2022/08/15 22:44:57;;;;;;;1.80;1.42;;;23.50;80.50;;;;;;4842732;29;20034;-83
2022/08/15 22:47:24;;;;;;;3.10;1.33;;;23.50;80.50;;;;;;4859054;29;20598;-82
2022/08/15 22:49:54;;;;;;;3.35;1.70;;;23.40;80.50;;;;;;4850387;29;20030;-82
2022/08/15 22:52:21;;;;;;;1.88;1.33;;;23.40;80.50;;;;;;4836542;29;20044;-84
2022/08/15 22:54:49;;;;;;;2.75;1.48;;;23.40;80.70;;;;;;4845297;29;20037;-83
2022/08/15 22:57:22;;;;;;;2.67;1.52;;;23.30;80.80;;;;;;4852690;29;20022;-82
2022/08/15 22:59:56;;;;;;;1.85;1.33;;;23.30;81.00;;;;;;4864278;29;20048;-81
2022/08/15 23:02:33;;;;;;;3.13;1.30;;;23.20;81.00;;;;;;4847397;29;20026;-83
2022/08/15 23:05:06;;;;;;;3.15;1.50;;;23.10;80.90;;;;;;4847740;29;20041;-83
2022/08/15 23:07:41;;;;;;;2.28;1.20;;;23.10;81.20;;;;;;4865324;29;20041;-82
2022/08/15 23:10:34;;;;;;;2.55;1.45;;;23.00;81.30;;;;;;4830307;29;20034;-82
2022/08/15 23:13:07;;;;;;;1.80;1.30;;;22.90;81.40;;;;;;4847883;29;20057;-83
2022/08/15 23:15:46;;;;;;;2.95;1.48;;;22.80;81.70;;;;;;4846260;29;20033;-82
2022/08/15 23:18:19;;;;;;;2.33;1.20;;;22.80;81.70;;;;;;4843945;29;20061;-82
2022/08/15 23:20:50;;;;;;;2.10;1.83;;;22.80;81.80;;;;;;4841882;29;20037;-82
2022/08/15 23:23:39;;;;;;;2.53;1.35;;;22.70;81.80;;;;;;4850620;29;20052;-82
2022/08/15 23:26:06;;;;;;;3.55;1.55;;;22.70;82.00;;;;;;4844636;29;20045;-82
2022/08/15 23:28:37;;;;;;;1.75;1.48;;;22.60;82.00;;;;;;4841056;29;20049;-83
2022/08/15 23:31:09;;;;;;;2.78;1.35;;;22.60;82.10;;;;;;4842720;29;20049;-81
2022/08/15 23:33:37;;;;;;;;;;;22.60;82.10;;;;;;4843966;29;20034;-82
2022/08/15 23:36:05;;;;;;;2.22;1.30;;;22.50;81.90;;;;;;4860553;29;19919;-81
2022/08/15 23:38:32;;;;;;;1.95;1.33;;;22.50;82.00;;;;;;4843809;29;20042;-83
2022/08/15 23:41:13;;;;;;;3.28;1.90;;;22.50;82.20;;;;;;4859402;29;20041;-81
2022/08/15 23:43:39;;;;;;;2.35;1.85;;;22.40;82.40;;;;;;4827847;29;20038;-81
2022/08/15 23:46:05;;;;;;;3.15;2.00;;;22.40;82.60;;;;;;4846856;29;20037;-81
2022/08/15 23:48:31;;;;;;;2.25;1.58;;;22.40;83.00;;;;;;4846308;29;20037;-82
2022/08/15 23:51:00;;;;;;;3.05;2.15;;;22.30;83.40;;;;;;4844405;29;20050;-81
2022/08/15 23:53:28;;;;;;;2.47;1.90;;;22.30;83.80;;;;;;4854633;29;20882;-81
2022/08/15 23:55:55;;;;;;;2.35;1.70;;;22.20;84.10;;;;;;4830792;29;20029;-82
2022/08/15 23:58:22;;;;;;;2.28;1.35;;;22.20;84.30;;;;;;4859400;29;20036;-82
